Time,TemperatureF,DewpointF,PressureIn,WindDirection,WindDirectionDegrees,WindSpeedMPH,WindSpeedGustMPH,Humidity,HourlyPrecipIn,Conditions,Clouds,dailyrainin,SoftwareType,DateUTC
2013-08-20 00:13:00,64.0,62.0,30.08,SW,214,0.0,0.0,93,0.00,,,0.00,,2013-08-20 04:13:00,
2013-08-20 00:23:00,64.0,62.0,30.08,SW,214,0.0,0.0,93,0.00,,,0.00,,2013-08-20 04:23:00,
2013-08-20 00:43:00,63.0,61.0,30.09,SW,214,0.0,0.0,93,0.00,,,0.00,,2013-08-20 04:43:00,
2013-08-20 00:53:00,63.0,61.0,30.09,SW,214,0.0,0.0,94,0.00,,,0.00,,2013-08-20 04:53:00,
2013-08-20 01:12:00,63.0,61.0,30.09,SW,214,0.0,0.0,94,0.00,,,0.00,,2013-08-20 05:12:00,
2013-08-20 01:22:00,62.0,61.0,30.09,SW,214,0.0,0.0,95,0.00,,,0.00,,2013-08-20 05:22:00,
2013-08-20 01:42:00,62.0,61.0,30.09,SW,214,0.0,0.0,95,0.00,,,0.00,,2013-08-20 05:42:00,
2013-08-20 01:52:00,62.0,61.0,30.09,SW,214,0.0,0.0,95,0.00,,,0.00,,2013-08-20 05:52:00,
2013-08-20 02:11:00,62.0,61.0,30.09,SW,214,0.0,0.0,95,0.00,,,0.00,,2013-08-20 06:11:00,
2013-08-20 02:22:00,61.0,60.0,30.09,SW,214,0.0,0.0,96,0.00,,,0.00,,2013-08-20 06:22:00,
2013-08-20 02:42:00,61.0,60.0,30.09,SW,214,0.0,0.0,96,0.00,,,0.00,,2013-08-20 06:42:00,
2013-08-20 02:52:00,61.0,60.0,30.09,SW,214,0.0,0.0,96,0.00,,,0.00,,2013-08-20 06:52:00,
2013-08-20 03:11:00,61.0,60.0,30.09,SW,214,0.0,0.0,96,0.00,,,0.00,,2013-08-20 07:11:00,
2013-08-20 03:22:00,61.0,60.0,30.09,SW,214,0.0,0.0,96,0.00,,,0.00,,2013-08-20 07:22:00,
2013-08-20 03:52:00,60.0,59.0,30.09,SW,214,0.0,0.0,97,0.00,,,0.00,,2013-08-20 07:52:00,
2013-08-20 04:11:00,60.0,59.0,30.09,SW,214,0.0,0.0,97,0.00,,,0.00,,2013-08-20 08:11:00,
2013-08-20 04:22:00,60.0,59.0,30.09,SW,214,0.0,0.0,97,0.00,,,0.00,,2013-08-20 08:22:00,
2013-08-20 04:52:00,60.0,59.0,30.10,SW,214,0.0,0.0,97,0.00,,,0.00,,2013-08-20 08:52:00,
2013-08-20 05:11:00,60.0,59.0,30.10,SW,214,0.0,0.0,97,0.00,,,0.00,,2013-08-20 09:11:00,
2013-08-20 05:21:00,59.0,58.0,30.10,SW,214,0.0,0.0,97,0.00,,,0.00,,2013-08-20 09:21:00,
2013-08-20 05:42:00,59.0,58.0,30.11,SW,214,0.0,0.0,97,0.00,,,0.00,,2013-08-20 09:42:00,
2013-08-20 05:53:00,59.0,58.0,30.11,SW,214,0.0,0.0,97,0.00,,,0.00,,2013-08-20 09:53:00,
2013-08-20 06:12:00,59.0,58.0,30.11,SW,214,0.0,0.0,97,0.00,,,0.00,,2013-08-20 10:12:00,
2013-08-20 06:23:00,59.0,58.0,30.11,SW,214,0.0,0.0,98,0.00,,,0.00,,2013-08-20 10:23:00,
2013-08-20 06:42:00,59.0,58.0,30.12,SW,214,0.0,0.0,97,0.00,,,0.00,,2013-08-20 10:42:00,
2013-08-20 06:52:00,59.0,58.0,30.12,SW,214,0.0,0.0,97,0.00,,,0.00,,2013-08-20 10:52:00,
2013-08-20 07:11:00,59.0,58.0,30.13,SW,214,0.0,0.0,97,0.00,,,0.00,,2013-08-20 11:11:00,
2013-08-20 07:22:00,59.0,58.0,30.14,SW,214,0.0,0.0,98,0.00,,,0.00,,2013-08-20 11:22:00,
2013-08-20 07:42:00,59.0,58.0,30.14,SW,214,0.0,0.0,98,0.00,,,0.00,,2013-08-20 11:42:00,
2013-08-20 07:52:00,59.0,58.0,30.14,SW,214,0.0,0.0,98,0.00,,,0.00,,2013-08-20 11:52:00,
2013-08-20 08:12:00,59.0,58.0,30.14,SW,214,0.0,0.0,98,0.00,,,0.00,,2013-08-20 12:12:00,
2013-08-20 08:21:00,60.0,59.0,30.15,SW,214,0.0,0.0,98,0.00,,,0.00,,2013-08-20 12:21:00,
2013-08-20 08:42:00,61.0,61.0,30.15,SW,214,0.0,0.0,99,0.00,,,0.00,,2013-08-20 12:42:00,
2013-08-20 08:52:00,63.0,63.0,30.15,SW,214,0.0,0.0,99,0.00,,,0.00,,2013-08-20 12:52:00,
2013-08-20 09:11:00,64.0,64.0,30.15,SW,214,0.0,0.0,99,0.00,,,0.00,,2013-08-20 13:11:00,
2013-08-20 09:22:00,66.0,65.0,30.15,SW,214,0.0,0.0,97,0.00,,,0.00,,2013-08-20 13:22:00,
2013-08-20 09:32:00,66.0,65.0,30.15,SW,214,0.0,0.0,97,0.00,,,0.00,,2013-08-20 13:32:00,
2013-08-20 09:42:00,66.0,65.0,30.15,SW,214,0.0,0.0,97,0.00,,,0.00,,2013-08-20 13:42:00,
2013-08-20 09:52:00,69.0,66.0,30.16,SW,214,0.0,2.0,91,0.00,,,0.00,,2013-08-20 13:52:00,
2013-08-20 10:11:00,71.0,67.0,30.16,SSW,209,0.0,6.0,88,0.00,,,0.00,,2013-08-20 14:11:00,
2013-08-20 10:22:00,72.0,67.0,30.16,WSW,245,0.0,3.0,84,0.00,,,0.00,,2013-08-20 14:22:00,
2013-08-20 10:52:00,75.0,67.0,30.16,SSW,203,0.0,2.0,75,0.00,,,0.00,,2013-08-20 14:52:00,
2013-08-20 11:11:00,77.0,68.0,30.16,WSW,251,0.0,4.0,74,0.00,,,0.00,,2013-08-20 15:11:00,
2013-08-20 11:22:00,78.0,69.0,30.16,SSW,209,1.0,4.0,73,0.00,,,0.00,,2013-08-20 15:22:00,
2013-08-20 11:43:00,79.0,68.0,30.16,SW,219,0.0,4.0,70,0.00,,,0.00,,2013-08-20 15:43:00,
2013-08-20 11:53:00,79.0,69.0,30.15,WSW,243,0.0,6.0,71,0.00,,,0.00,,2013-08-20 15:53:00,
2013-08-20 12:15:00,80.0,67.0,30.15,SSW,196,2.0,7.0,65,0.00,,,0.00,,2013-08-20 16:15:00,
2013-08-20 12:30:00,-999.0,-99.9,30.15,West,269,0.0,8.0,64,0.00,,,0.00,,2013-08-20 16:30:00,
2013-08-20 12:42:00,81.0,67.0,30.15,SSW,207,1.0,5.0,63,0.00,,,0.00,,2013-08-20 16:42:00,
2013-08-20 12:52:00,81.0,68.0,30.15,SW,219,1.0,5.0,64,0.00,,,0.00,,2013-08-20 16:52:00,
2013-08-20 13:12:00,82.0,68.0,30.14,West,265,1.0,4.0,63,0.00,,,0.00,,2013-08-20 17:12:00,
2013-08-20 13:24:00,83.0,68.0,30.14,SE,138,1.0,7.0,60,0.00,,,0.00,,2013-08-20 17:24:00,
2013-08-20 13:43:00,84.0,68.0,30.14,SSE,151,1.0,7.0,59,0.00,,,0.00,,2013-08-20 17:43:00,
2013-08-20 13:52:00,83.0,69.0,30.13,West,270,0.0,4.0,63,0.00,,,0.00,,2013-08-20 17:52:00,
2013-08-20 14:12:00,83.0,68.0,30.13,SW,231,0.0,5.0,61,0.00,,,0.00,,2013-08-20 18:12:00,
2013-08-20 14:22:00,83.0,70.0,30.12,WSW,246,1.0,3.0,64,0.00,,,0.00,,2013-08-20 18:22:00,
2013-08-20 14:52:00,82.0,68.0,30.11,SE,131,0.0,3.0,62,0.00,,,0.00,,2013-08-20 18:52:00,
2013-08-20 15:11:00,83.0,67.0,30.11,West,276,0.0,3.0,59,0.00,,,0.00,,2013-08-20 19:11:00,
2013-08-20 15:22:00,81.0,69.0,30.11,South,181,0.0,5.0,66,0.00,,,0.00,,2013-08-20 19:22:00,
2013-08-20 15:42:00,82.0,69.0,30.11,SSW,211,1.0,4.0,64,0.00,,,0.00,,2013-08-20 19:42:00,
2013-08-20 15:52:00,82.0,67.0,30.10,SW,215,0.0,4.0,60,0.00,,,0.00,,2013-08-20 19:52:00,
2013-08-20 16:12:00,83.0,67.0,30.09,South,185,2.0,8.0,59,0.00,,,0.00,,2013-08-20 20:12:00,
2013-08-20 16:22:00,84.0,69.0,30.09,SW,223,3.0,7.0,60,0.00,,,0.00,,2013-08-20 20:22:00,
2013-08-20 16:42:00,84.0,67.0,30.08,WSW,248,0.0,6.0,56,0.00,,,0.00,,2013-08-20 20:42:00,
2013-08-20 16:52:00,84.0,68.0,30.08,SSW,200,0.0,5.0,58,0.00,,,0.00,,2013-08-20 20:52:00,
2013-08-20 17:11:00,83.0,68.0,30.08,WSW,246,0.0,3.0,61,0.00,,,0.00,,2013-08-20 21:11:00,
2013-08-20 17:22:00,83.0,67.0,30.07,SW,232,0.0,7.0,59,0.00,,,0.00,,2013-08-20 21:22:00,
2013-08-20 17:44:00,84.0,68.0,30.07,SSW,211,3.0,8.0,59,0.00,,,0.00,,2013-08-20 21:44:00,
2013-08-20 17:55:00,84.0,69.0,30.07,SW,226,0.0,4.0,60,0.00,,,0.00,,2013-08-20 21:55:00,
2013-08-20 18:14:00,84.0,67.0,30.07,SSE,150,1.0,4.0,57,0.00,,,0.00,,2013-08-20 22:14:00,
2013-08-20 18:24:00,83.0,66.0,30.07,West,273,2.0,5.0,57,0.00,,,0.00,,2013-08-20 22:24:00,
2013-08-20 18:42:00,82.0,67.0,30.07,SSW,198,0.0,5.0,60,0.00,,,0.00,,2013-08-20 22:42:00,
2013-08-20 18:53:00,81.0,67.0,30.07,WSW,239,0.0,3.0,62,0.00,,,0.00,,2013-08-20 22:53:00,
2013-08-20 19:12:00,80.0,66.0,30.07,SSW,199,0.0,4.0,62,0.00,,,0.00,,2013-08-20 23:12:00,
2013-08-20 19:22:00,80.0,66.0,30.07,WSW,242,0.0,2.0,63,0.00,,,0.00,,2013-08-20 23:22:00,
2013-08-20 19:42:00,80.0,67.0,30.07,WSW,238,0.0,2.0,64,0.00,,,0.00,,2013-08-20 23:42:00,
2013-08-20 19:53:00,79.0,67.0,30.07,SW,234,0.0,3.0,66,0.00,,,0.00,,2013-08-20 23:53:00,
2013-08-20 20:12:00,79.0,66.0,30.06,SW,234,0.0,1.0,65,0.00,,,0.00,,2013-08-21 00:12:00,
2013-08-20 20:23:00,78.0,66.0,30.07,SW,234,0.0,0.0,66,0.00,,,0.00,,2013-08-21 00:23:00,
2013-08-20 20:42:00,78.0,67.0,30.07,SW,234,0.0,0.0,68,0.00,,,0.00,,2013-08-21 00:42:00,
2013-08-20 20:52:00,77.0,66.0,30.07,SW,234,0.0,0.0,70,0.00,,,0.00,,2013-08-21 00:52:00,
2013-08-20 21:11:00,76.0,66.0,30.08,SW,234,0.0,0.0,72,0.00,,,0.00,,2013-08-21 01:11:00,
2013-08-20 21:22:00,75.0,66.0,30.08,SW,234,0.0,0.0,74,0.00,,,0.00,,2013-08-21 01:22:00,
2013-08-20 21:42:00,73.0,66.0,30.08,SW,234,0.0,0.0,80,0.00,,,0.00,,2013-08-21 01:42:00,
2013-08-20 21:52:00,72.0,66.0,30.08,SW,234,0.0,0.0,81,0.00,,,0.00,,2013-08-21 01:52:00,
2013-08-20 22:12:00,71.0,66.0,30.09,SW,234,0.0,0.0,83,0.00,,,0.00,,2013-08-21 02:12:00,
2013-08-20 22:22:00,70.0,66.0,30.09,SW,234,0.0,0.0,86,0.00,,,0.00,,2013-08-21 02:22:00,
2013-08-20 22:42:00,69.0,65.0,30.09,SW,234,0.0,0.0,88,0.00,,,0.00,,2013-08-21 02:42:00,
2013-08-20 22:52:00,68.0,65.0,30.10,SW,234,0.0,0.0,89,0.00,,,0.00,,2013-08-21 02:52:00,
2013-08-20 23:12:00,68.0,65.0,30.10,SW,234,0.0,0.0,91,0.00,,,0.00,,2013-08-21 03:12:00,
2013-08-20 23:23:00,67.0,64.0,30.10,SW,234,0.0,0.0,91,0.00,,,0.00,,2013-08-21 03:23:00,
2013-08-20 23:44:00,67.0,65.0,30.11,SW,234,0.0,0.0,92,0.00,,,0.00,,2013-08-21 03:44:00,
2013-08-20 23:55:00,67.0,65.0,30.11,SW,234,0.0,0.0,93,0.00,,,0.00,,2013-08-21 03:55:00,